sensor_id;sensor_type;location;lat;lon;timestamp;P1;durP1;ratioP1;P2;durP2;ratioP2
77046;SDS011;65977;56.380;44.022;2023-03-31T00:00:46;16.85;;;11.68;;
77046;SDS011;65977;56.380;44.022;2023-03-31T00:03:17;14.90;;;10.23;;
77046;SDS011;65977;56.380;44.022;2023-03-31T00:05:48;17.95;;;11.27;;
77046;SDS011;65977;56.380;44.022;2023-03-31T00:08:20;15.85;;;10.40;;
77046;SDS011;65977;56.380;44.022;2023-03-31T00:10:47;14.85;;;10.00;;
77046;SDS011;65977;56.380;44.022;2023-03-31T00:13:14;16.48;;;11.02;;
77046;SDS011;65977;56.380;44.022;2023-03-31T00:15:41;15.02;;;9.63;;
77046;SDS011;65977;56.380;44.022;2023-03-31T00:18:08;14.85;;;10.32;;
77046;SDS011;65977;56.380;44.022;2023-03-31T00:20:36;18.60;;;9.77;;
77046;SDS011;65977;56.380;44.022;2023-03-31T00:23:04;13.57;;;9.07;;
77046;SDS011;65977;56.380;44.022;2023-03-31T00:25:39;14.32;;;10.88;;
77046;SDS011;65977;56.380;44.022;2023-03-31T00:28:07;13.32;;;9.05;;
77046;SDS011;65977;56.380;44.022;2023-03-31T00:30:34;15.30;;;10.57;;
77046;SDS011;65977;56.380;44.022;2023-03-31T00:33:01;14.07;;;10.82;;
77046;SDS011;65977;56.380;44.022;2023-03-31T00:35:29;17.95;;;9.43;;
77046;SDS011;65977;56.380;44.022;2023-03-31T00:37:56;19.85;;;11.70;;
77046;SDS011;65977;56.380;44.022;2023-03-31T00:40:23;15.75;;;10.95;;
77046;SDS011;65977;56.380;44.022;2023-03-31T00:42:50;16.88;;;9.75;;
77046;SDS011;65977;56.380;44.022;2023-03-31T00:45:22;16.13;;;11.05;;
77046;SDS011;65977;56.380;44.022;2023-03-31T00:48:06;14.80;;;9.68;;
77046;SDS011;65977;56.380;44.022;2023-03-31T00:50:43;19.23;;;11.40;;
77046;SDS011;65977;56.380;44.022;2023-03-31T00:53:16;21.42;;;11.75;;
77046;SDS011;65977;56.380;44.022;2023-03-31T00:55:49;22.73;;;11.15;;
77046;SDS011;65977;56.380;44.022;2023-03-31T00:58:18;15.25;;;9.90;;
77046;SDS011;65977;56.380;44.022;2023-03-31T01:00:47;18.05;;;10.93;;
77046;SDS011;65977;56.380;44.022;2023-03-31T01:03:18;20.05;;;11.05;;
77046;SDS011;65977;56.380;44.022;2023-03-31T01:05:49;12.75;;;9.90;;
77046;SDS011;65977;56.380;44.022;2023-03-31T01:08:21;19.92;;;11.38;;
77046;SDS011;65977;56.380;44.022;2023-03-31T01:11:11;15.93;;;10.48;;
77046;SDS011;65977;56.380;44.022;2023-03-31T01:13:39;17.75;;;11.73;;
77046;SDS011;65977;56.380;44.022;2023-03-31T01:16:08;17.45;;;10.48;;
77046;SDS011;65977;56.380;44.022;2023-03-31T01:18:35;14.88;;;10.73;;
77046;SDS011;65977;56.380;44.022;2023-03-31T01:30:14;16.92;;;11.00;;
77046;SDS011;65977;56.380;44.022;2023-03-31T01:39:04;13.77;;;10.75;;
77046;SDS011;65977;56.380;44.022;2023-03-31T01:46:53;16.30;;;11.55;;
77046;SDS011;65977;56.380;44.022;2023-03-31T01:49:29;18.40;;;11.13;;
77046;SDS011;65977;56.380;44.022;2023-03-31T01:52:21;16.58;;;11.25;;
77046;SDS011;65977;56.380;44.022;2023-03-31T01:57:46;17.65;;;12.20;;
77046;SDS011;65977;56.380;44.022;2023-03-31T02:00:24;18.45;;;12.27;;
77046;SDS011;65977;56.380;44.022;2023-03-31T02:03:07;16.60;;;11.38;;
77046;SDS011;65977;56.380;44.022;2023-03-31T02:05:42;22.25;;;12.77;;
77046;SDS011;65977;56.380;44.022;2023-03-31T02:08:14;20.45;;;14.02;;
77046;SDS011;65977;56.380;44.022;2023-03-31T02:10:46;20.52;;;14.10;;
77046;SDS011;65977;56.380;44.022;2023-03-31T02:13:14;16.98;;;12.40;;
77046;SDS011;65977;56.380;44.022;2023-03-31T02:15:45;17.25;;;11.38;;
77046;SDS011;65977;56.380;44.022;2023-03-31T02:18:17;17.23;;;12.18;;
77046;SDS011;65977;56.380;44.022;2023-03-31T02:20:47;19.33;;;12.50;;
77046;SDS011;65977;56.380;44.022;2023-03-31T02:23:17;16.65;;;11.95;;
77046;SDS011;65977;56.380;44.022;2023-03-31T02:25:52;18.80;;;11.27;;
77046;SDS011;65977;56.380;44.022;2023-03-31T02:28:26;16.45;;;11.35;;
77046;SDS011;65977;56.380;44.022;2023-03-31T02:33:49;17.38;;;12.48;;
77046;SDS011;65977;56.380;44.022;2023-03-31T02:36:16;18.77;;;12.35;;
77046;SDS011;65977;56.380;44.022;2023-03-31T02:39:04;19.95;;;11.43;;
77046;SDS011;65977;56.380;44.022;2023-03-31T02:41:45;16.90;;;12.40;;
77046;SDS011;65977;56.380;44.022;2023-03-31T02:44:12;16.00;;;11.45;;
77046;SDS011;65977;56.380;44.022;2023-03-31T02:46:40;16.38;;;11.65;;
77046;SDS011;65977;56.380;44.022;2023-03-31T02:49:08;16.67;;;13.35;;
77046;SDS011;65977;56.380;44.022;2023-03-31T03:02:23;16.58;;;12.00;;
77046;SDS011;65977;56.380;44.022;2023-03-31T03:08:26;18.77;;;12.82;;
77046;SDS011;65977;56.380;44.022;2023-03-31T03:13:51;19.17;;;11.55;;
77046;SDS011;65977;56.380;44.022;2023-03-31T03:16:28;19.85;;;12.20;;
77046;SDS011;65977;56.380;44.022;2023-03-31T03:19:02;18.50;;;10.88;;
77046;SDS011;65977;56.380;44.022;2023-03-31T03:21:32;16.90;;;12.10;;
77046;SDS011;65977;56.380;44.022;2023-03-31T03:23:59;17.17;;;11.80;;
77046;SDS011;65977;56.380;44.022;2023-03-31T03:26:27;41.78;;;13.27;;
77046;SDS011;65977;56.380;44.022;2023-03-31T03:28:54;20.85;;;11.85;;
77046;SDS011;65977;56.380;44.022;2023-03-31T03:31:22;16.77;;;11.23;;
77046;SDS011;65977;56.380;44.022;2023-03-31T03:33:52;15.63;;;10.90;;
77046;SDS011;65977;56.380;44.022;2023-03-31T03:36:19;17.52;;;11.25;;
77046;SDS011;65977;56.380;44.022;2023-03-31T03:38:47;18.90;;;12.65;;
77046;SDS011;65977;56.380;44.022;2023-03-31T03:41:14;21.73;;;13.05;;
77046;SDS011;65977;56.380;44.022;2023-03-31T03:43:41;16.73;;;11.90;;
77046;SDS011;65977;56.380;44.022;2023-03-31T03:46:08;16.00;;;11.18;;
77046;SDS011;65977;56.380;44.022;2023-03-31T03:48:35;16.35;;;10.90;;
77046;SDS011;65977;56.380;44.022;2023-03-31T03:51:02;18.95;;;10.95;;
77046;SDS011;65977;56.380;44.022;2023-03-31T03:53:29;15.32;;;11.68;;
77046;SDS011;65977;56.380;44.022;2023-03-31T03:55:56;18.38;;;10.45;;
77046;SDS011;65977;56.380;44.022;2023-03-31T03:58:24;17.83;;;10.00;;
77046;SDS011;65977;56.380;44.022;2023-03-31T04:00:51;16.38;;;9.82;;
77046;SDS011;65977;56.380;44.022;2023-03-31T04:03:18;16.08;;;11.65;;
77046;SDS011;65977;56.380;44.022;2023-03-31T04:05:46;14.30;;;10.50;;
77046;SDS011;65977;56.380;44.022;2023-03-31T04:08:16;16.67;;;10.32;;
77046;SDS011;65977;56.380;44.022;2023-03-31T04:10:44;16.30;;;11.20;;
77046;SDS011;65977;56.380;44.022;2023-03-31T04:13:16;19.70;;;11.10;;
77046;SDS011;65977;56.380;44.022;2023-03-31T04:15:46;20.55;;;10.02;;
77046;SDS011;65977;56.380;44.022;2023-03-31T04:18:13;19.95;;;10.45;;
77046;SDS011;65977;56.380;44.022;2023-03-31T04:20:58;23.23;;;11.70;;
77046;SDS011;65977;56.380;44.022;2023-03-31T04:23:32;17.92;;;10.00;;
77046;SDS011;65977;56.380;44.022;2023-03-31T04:26:00;23.70;;;10.40;;
77046;SDS011;65977;56.380;44.022;2023-03-31T04:28:28;18.95;;;11.25;;
77046;SDS011;65977;56.380;44.022;2023-03-31T04:31:01;15.18;;;11.15;;
77046;SDS011;65977;56.380;44.022;2023-03-31T04:33:29;18.27;;;10.77;;
77046;SDS011;65977;56.380;44.022;2023-03-31T04:35:56;17.25;;;12.63;;
77046;SDS011;65977;56.380;44.022;2023-03-31T04:38:23;22.40;;;11.10;;
77046;SDS011;65977;56.380;44.022;2023-03-31T04:40:52;23.67;;;10.52;;
77046;SDS011;65977;56.380;44.022;2023-03-31T04:43:20;14.00;;;10.48;;
77046;SDS011;65977;56.380;44.022;2023-03-31T04:45:47;18.05;;;10.93;;
77046;SDS011;65977;56.380;44.022;2023-03-31T04:48:15;22.88;;;11.40;;
77046;SDS011;65977;56.380;44.022;2023-03-31T04:50:42;19.98;;;11.20;;
77046;SDS011;65977;56.380;44.022;2023-03-31T04:53:12;17.02;;;11.18;;
77046;SDS011;65977;56.380;44.022;2023-03-31T04:55:39;18.38;;;11.93;;
77046;SDS011;65977;56.380;44.022;2023-03-31T04:58:06;15.55;;;9.25;;
77046;SDS011;65977;56.380;44.022;2023-03-31T05:00:33;19.65;;;9.88;;
77046;SDS011;65977;56.380;44.022;2023-03-31T05:03:00;29.35;;;11.23;;
77046;SDS011;65977;56.380;44.022;2023-03-31T05:05:27;20.17;;;10.43;;
77046;SDS011;65977;56.380;44.022;2023-03-31T05:07:54;20.65;;;10.30;;
77046;SDS011;65977;56.380;44.022;2023-03-31T05:10:21;20.35;;;11.93;;
77046;SDS011;65977;56.380;44.022;2023-03-31T05:12:48;22.50;;;11.85;;
77046;SDS011;65977;56.380;44.022;2023-03-31T05:15:16;23.38;;;10.88;;
77046;SDS011;65977;56.380;44.022;2023-03-31T05:17:43;12.43;;;9.13;;
77046;SDS011;65977;56.380;44.022;2023-03-31T05:20:10;16.40;;;9.43;;
77046;SDS011;65977;56.380;44.022;2023-03-31T05:22:39;20.17;;;10.23;;
77046;SDS011;65977;56.380;44.022;2023-03-31T05:25:09;15.27;;;9.45;;
77046;SDS011;65977;56.380;44.022;2023-03-31T05:27:37;17.48;;;8.82;;
77046;SDS011;65977;56.380;44.022;2023-03-31T05:30:05;19.52;;;9.50;;
77046;SDS011;65977;56.380;44.022;2023-03-31T05:32:33;16.45;;;8.70;;
77046;SDS011;65977;56.380;44.022;2023-03-31T05:35:00;15.80;;;7.93;;
77046;SDS011;65977;56.380;44.022;2023-03-31T05:37:29;13.85;;;7.80;;
77046;SDS011;65977;56.380;44.022;2023-03-31T05:39:56;13.15;;;7.45;;
77046;SDS011;65977;56.380;44.022;2023-03-31T05:42:23;19.15;;;7.60;;
77046;SDS011;65977;56.380;44.022;2023-03-31T05:44:50;14.88;;;7.28;;
77046;SDS011;65977;56.380;44.022;2023-03-31T05:47:17;14.73;;;8.45;;
77046;SDS011;65977;56.380;44.022;2023-03-31T05:49:44;11.35;;;7.28;;
77046;SDS011;65977;56.380;44.022;2023-03-31T05:52:11;11.68;;;7.55;;
77046;SDS011;65977;56.380;44.022;2023-03-31T05:54:38;12.18;;;6.22;;
77046;SDS011;65977;56.380;44.022;2023-03-31T05:57:06;17.85;;;7.70;;
77046;SDS011;65977;56.380;44.022;2023-03-31T05:59:33;13.98;;;7.80;;
77046;SDS011;65977;56.380;44.022;2023-03-31T06:02:02;11.85;;;7.43;;
77046;SDS011;65977;56.380;44.022;2023-03-31T06:04:29;16.52;;;6.03;;
77046;SDS011;65977;56.380;44.022;2023-03-31T06:06:58;14.20;;;6.93;;
77046;SDS011;65977;56.380;44.022;2023-03-31T06:09:25;8.15;;;6.55;;
77046;SDS011;65977;56.380;44.022;2023-03-31T06:11:53;11.73;;;6.60;;
77046;SDS011;65977;56.380;44.022;2023-03-31T06:14:21;9.60;;;6.25;;
77046;SDS011;65977;56.380;44.022;2023-03-31T06:16:49;13.18;;;7.03;;
77046;SDS011;65977;56.380;44.022;2023-03-31T06:19:16;8.70;;;6.32;;
77046;SDS011;65977;56.380;44.022;2023-03-31T06:21:43;9.88;;;5.55;;
77046;SDS011;65977;56.380;44.022;2023-03-31T06:24:11;9.98;;;6.35;;
77046;SDS011;65977;56.380;44.022;2023-03-31T06:26:40;12.32;;;5.72;;
77046;SDS011;65977;56.380;44.022;2023-03-31T06:29:07;13.82;;;6.57;;
77046;SDS011;65977;56.380;44.022;2023-03-31T06:31:34;11.98;;;6.10;;
77046;SDS011;65977;56.380;44.022;2023-03-31T06:34:01;12.20;;;6.00;;
77046;SDS011;65977;56.380;44.022;2023-03-31T06:36:28;10.63;;;6.50;;
77046;SDS011;65977;56.380;44.022;2023-03-31T06:38:55;9.60;;;6.32;;
77046;SDS011;65977;56.380;44.022;2023-03-31T06:41:22;8.10;;;5.47;;
77046;SDS011;65977;56.380;44.022;2023-03-31T06:43:49;10.23;;;6.00;;
77046;SDS011;65977;56.380;44.022;2023-03-31T06:46:17;10.95;;;5.80;;
77046;SDS011;65977;56.380;44.022;2023-03-31T06:48:44;11.15;;;6.13;;
77046;SDS011;65977;56.380;44.022;2023-03-31T06:51:11;12.00;;;5.97;;
77046;SDS011;65977;56.380;44.022;2023-03-31T06:53:38;11.35;;;6.28;;
77046;SDS011;65977;56.380;44.022;2023-03-31T06:56:05;7.35;;;5.07;;
77046;SDS011;65977;56.380;44.022;2023-03-31T06:58:33;9.85;;;5.28;;
77046;SDS011;65977;56.380;44.022;2023-03-31T07:01:01;10.63;;;6.88;;
77046;SDS011;65977;56.380;44.022;2023-03-31T07:03:30;8.60;;;6.45;;
77046;SDS011;65977;56.380;44.022;2023-03-31T07:05:58;11.00;;;6.47;;
77046;SDS011;65977;56.380;44.022;2023-03-31T07:08:25;12.02;;;6.63;;
77046;SDS011;65977;56.380;44.022;2023-03-31T07:10:56;9.88;;;6.68;;
77046;SDS011;65977;56.380;44.022;2023-03-31T07:13:25;8.73;;;6.32;;
77046;SDS011;65977;56.380;44.022;2023-03-31T07:15:53;11.55;;;5.93;;
77046;SDS011;65977;56.380;44.022;2023-03-31T07:18:21;10.07;;;5.63;;
77046;SDS011;65977;56.380;44.022;2023-03-31T07:20:51;12.88;;;7.28;;
77046;SDS011;65977;56.380;44.022;2023-03-31T07:23:19;8.05;;;6.15;;
77046;SDS011;65977;56.380;44.022;2023-03-31T07:25:46;9.30;;;6.25;;
77046;SDS011;65977;56.380;44.022;2023-03-31T07:28:14;10.80;;;6.22;;
77046;SDS011;65977;56.380;44.022;2023-03-31T07:30:42;10.20;;;6.40;;
77046;SDS011;65977;56.380;44.022;2023-03-31T07:33:09;12.57;;;7.57;;
77046;SDS011;65977;56.380;44.022;2023-03-31T07:35:37;9.00;;;6.65;;
77046;SDS011;65977;56.380;44.022;2023-03-31T07:38:06;8.60;;;6.20;;
77046;SDS011;65977;56.380;44.022;2023-03-31T07:40:38;11.48;;;7.13;;
77046;SDS011;65977;56.380;44.022;2023-03-31T07:43:05;8.18;;;6.78;;
77046;SDS011;65977;56.380;44.022;2023-03-31T07:45:33;8.70;;;7.22;;
77046;SDS011;65977;56.380;44.022;2023-03-31T07:48:00;11.25;;;7.22;;
77046;SDS011;65977;56.380;44.022;2023-03-31T07:50:27;8.50;;;6.70;;
77046;SDS011;65977;56.380;44.022;2023-03-31T07:52:55;9.25;;;7.10;;
77046;SDS011;65977;56.380;44.022;2023-03-31T07:55:22;14.10;;;7.05;;
77046;SDS011;65977;56.380;44.022;2023-03-31T07:57:51;10.25;;;7.13;;
77046;SDS011;65977;56.380;44.022;2023-03-31T08:00:19;10.90;;;6.63;;
77046;SDS011;65977;56.380;44.022;2023-03-31T08:02:47;8.00;;;6.10;;
77046;SDS011;65977;56.380;44.022;2023-03-31T08:05:16;9.90;;;6.40;;
77046;SDS011;65977;56.380;44.022;2023-03-31T08:07:45;7.60;;;5.57;;
77046;SDS011;65977;56.380;44.022;2023-03-31T08:10:16;11.18;;;6.85;;
77046;SDS011;65977;56.380;44.022;2023-03-31T08:12:47;12.68;;;7.28;;
77046;SDS011;65977;56.380;44.022;2023-03-31T08:15:14;10.13;;;6.50;;
77046;SDS011;65977;56.380;44.022;2023-03-31T08:17:42;8.40;;;6.05;;
77046;SDS011;65977;56.380;44.022;2023-03-31T08:20:09;11.98;;;6.47;;
77046;SDS011;65977;56.380;44.022;2023-03-31T08:22:37;14.20;;;7.35;;
77046;SDS011;65977;56.380;44.022;2023-03-31T08:25:05;15.68;;;7.68;;
77046;SDS011;65977;56.380;44.022;2023-03-31T08:27:36;10.20;;;5.65;;
77046;SDS011;65977;56.380;44.022;2023-03-31T08:30:06;7.65;;;6.13;;
77046;SDS011;65977;56.380;44.022;2023-03-31T08:32:39;8.05;;;6.30;;
77046;SDS011;65977;56.380;44.022;2023-03-31T08:35:06;11.43;;;7.82;;
77046;SDS011;65977;56.380;44.022;2023-03-31T08:37:35;12.85;;;7.60;;
77046;SDS011;65977;56.380;44.022;2023-03-31T08:40:03;8.95;;;7.22;;
77046;SDS011;65977;56.380;44.022;2023-03-31T08:45:13;10.13;;;7.50;;
77046;SDS011;65977;56.380;44.022;2023-03-31T08:47:47;12.10;;;7.35;;
77046;SDS011;65977;56.380;44.022;2023-03-31T08:50:20;18.42;;;12.70;;
77046;SDS011;65977;56.380;44.022;2023-03-31T08:53:19;10.07;;;6.85;;
77046;SDS011;65977;56.380;44.022;2023-03-31T08:55:52;10.77;;;6.78;;
77046;SDS011;65977;56.380;44.022;2023-03-31T08:58:34;8.77;;;6.68;;
77046;SDS011;65977;56.380;44.022;2023-03-31T09:01:23;8.65;;;5.50;;
77046;SDS011;65977;56.380;44.022;2023-03-31T09:12:46;9.63;;;6.70;;
77046;SDS011;65977;56.380;44.022;2023-03-31T09:15:40;9.57;;;6.05;;
77046;SDS011;65977;56.380;44.022;2023-03-31T09:18:28;10.85;;;6.68;;
77046;SDS011;65977;56.380;44.022;2023-03-31T09:21:03;8.82;;;6.22;;
77046;SDS011;65977;56.380;44.022;2023-03-31T09:23:34;9.90;;;5.72;;
77046;SDS011;65977;56.380;44.022;2023-03-31T09:26:06;14.27;;;6.00;;
77046;SDS011;65977;56.380;44.022;2023-03-31T09:28:46;13.20;;;6.65;;
77046;SDS011;65977;56.380;44.022;2023-03-31T09:31:15;11.70;;;5.75;;
77046;SDS011;65977;56.380;44.022;2023-03-31T09:33:45;12.63;;;6.43;;
77046;SDS011;65977;56.380;44.022;2023-03-31T09:36:14;10.65;;;6.15;;
77046;SDS011;65977;56.380;44.022;2023-03-31T09:38:44;10.50;;;6.75;;
77046;SDS011;65977;56.380;44.022;2023-03-31T09:41:13;9.95;;;6.28;;
77046;SDS011;65977;56.380;44.022;2023-03-31T09:43:42;7.60;;;4.82;;
77046;SDS011;65977;56.380;44.022;2023-03-31T09:49:01;9.40;;;6.70;;
77046;SDS011;65977;56.380;44.022;2023-03-31T09:51:38;11.77;;;7.75;;
77046;SDS011;65977;56.380;44.022;2023-03-31T09:54:14;14.07;;;6.88;;
77046;SDS011;65977;56.380;44.022;2023-03-31T09:56:48;9.38;;;5.95;;
77046;SDS011;65977;56.380;44.022;2023-03-31T09:59:20;9.93;;;6.10;;
77046;SDS011;65977;56.380;44.022;2023-03-31T10:01:49;8.82;;;6.15;;
77046;SDS011;65977;56.380;44.022;2023-03-31T10:04:22;9.15;;;7.07;;
77046;SDS011;65977;56.380;44.022;2023-03-31T10:06:52;9.65;;;6.35;;
77046;SDS011;65977;56.380;44.022;2023-03-31T10:09:20;10.25;;;6.40;;
77046;SDS011;65977;56.380;44.022;2023-03-31T10:14:39;10.88;;;7.20;;
77046;SDS011;65977;56.380;44.022;2023-03-31T10:17:13;8.90;;;6.93;;
77046;SDS011;65977;56.380;44.022;2023-03-31T10:19:58;11.00;;;8.13;;
77046;SDS011;65977;56.380;44.022;2023-03-31T10:22:45;12.43;;;7.20;;
77046;SDS011;65977;56.380;44.022;2023-03-31T10:25:17;12.55;;;7.10;;
77046;SDS011;65977;56.380;44.022;2023-03-31T10:27:47;8.90;;;6.70;;
77046;SDS011;65977;56.380;44.022;2023-03-31T10:30:23;10.05;;;6.93;;
77046;SDS011;65977;56.380;44.022;2023-03-31T10:32:51;10.38;;;6.78;;
77046;SDS011;65977;56.380;44.022;2023-03-31T10:38:01;8.45;;;5.95;;
77046;SDS011;65977;56.380;44.022;2023-03-31T10:40:32;9.98;;;6.95;;
77046;SDS011;65977;56.380;44.022;2023-03-31T10:43:13;9.35;;;6.25;;
77046;SDS011;65977;56.380;44.022;2023-03-31T10:45:49;9.00;;;6.15;;
77046;SDS011;65977;56.380;44.022;2023-03-31T10:53:47;7.07;;;5.30;;
77046;SDS011;65977;56.380;44.022;2023-03-31T11:29:47;9.05;;;6.65;;
77046;SDS011;65977;56.380;44.022;2023-03-31T11:32:44;10.07;;;6.22;;
77046;SDS011;65977;56.380;44.022;2023-03-31T11:35:33;7.97;;;4.85;;
77046;SDS011;65977;56.380;44.022;2023-03-31T11:38:14;8.82;;;4.93;;
77046;SDS011;65977;56.380;44.022;2023-03-31T11:41:02;9.25;;;7.30;;
77046;SDS011;65977;56.380;44.022;2023-03-31T11:52:08;10.43;;;7.18;;
77046;SDS011;65977;56.380;44.022;2023-03-31T11:57:00;10.02;;;7.85;;
77046;SDS011;65977;56.380;44.022;2023-03-31T11:59:32;11.48;;;8.52;;
77046;SDS011;65977;56.380;44.022;2023-03-31T12:04:36;11.98;;;8.05;;
77046;SDS011;65977;56.380;44.022;2023-03-31T12:07:49;11.85;;;8.27;;
77046;SDS011;65977;56.380;44.022;2023-03-31T12:10:04;10.25;;;7.90;;
77046;SDS011;65977;56.380;44.022;2023-03-31T12:12:54;9.68;;;7.30;;
77046;SDS011;65977;56.380;44.022;2023-03-31T12:15:29;12.20;;;7.72;;
77046;SDS011;65977;56.380;44.022;2023-03-31T12:18:08;9.32;;;6.93;;
77046;SDS011;65977;56.380;44.022;2023-03-31T12:20:43;10.85;;;8.38;;
77046;SDS011;65977;56.380;44.022;2023-03-31T12:23:16;13.35;;;9.00;;
77046;SDS011;65977;56.380;44.022;2023-03-31T12:26:06;10.98;;;9.13;;
77046;SDS011;65977;56.380;44.022;2023-03-31T12:28:44;11.35;;;8.93;;
77046;SDS011;65977;56.380;44.022;2023-03-31T12:31:20;9.45;;;7.20;;
77046;SDS011;65977;56.380;44.022;2023-03-31T12:33:54;12.13;;;8.75;;
77046;SDS011;65977;56.380;44.022;2023-03-31T12:56:26;10.63;;;8.88;;
77046;SDS011;65977;56.380;44.022;2023-03-31T12:58:53;15.07;;;9.05;;
77046;SDS011;65977;56.380;44.022;2023-03-31T13:01:20;15.65;;;9.77;;
77046;SDS011;65977;56.380;44.022;2023-03-31T13:03:50;10.52;;;8.55;;
77046;SDS011;65977;56.380;44.022;2023-03-31T13:09:06;16.45;;;10.57;;
77046;SDS011;65977;56.380;44.022;2023-03-31T13:11:48;15.23;;;10.48;;
77046;SDS011;65977;56.380;44.022;2023-03-31T13:14:22;16.05;;;10.55;;
77046;SDS011;65977;56.380;44.022;2023-03-31T13:17:10;17.13;;;12.65;;
77046;SDS011;65977;56.380;44.022;2023-03-31T13:19:51;16.45;;;12.45;;
77046;SDS011;65977;56.380;44.022;2023-03-31T13:22:27;16.52;;;12.63;;
77046;SDS011;65977;56.380;44.022;2023-03-31T13:28:44;16.05;;;11.90;;
77046;SDS011;65977;56.380;44.022;2023-03-31T13:44:27;20.45;;;11.80;;
77046;SDS011;65977;56.380;44.022;2023-03-31T13:50:31;18.75;;;10.90;;
77046;SDS011;65977;56.380;44.022;2023-03-31T13:59:04;15.80;;;10.35;;
77046;SDS011;65977;56.380;44.022;2023-03-31T14:07:20;12.68;;;8.95;;
77046;SDS011;65977;56.380;44.022;2023-03-31T14:09:54;12.98;;;11.25;;
77046;SDS011;65977;56.380;44.022;2023-03-31T14:12:34;17.17;;;11.30;;
77046;SDS011;65977;56.380;44.022;2023-03-31T14:15:04;15.43;;;10.90;;
77046;SDS011;65977;56.380;44.022;2023-03-31T14:17:35;16.25;;;11.77;;
77046;SDS011;65977;56.380;44.022;2023-03-31T14:23:08;18.27;;;11.90;;
77046;SDS011;65977;56.380;44.022;2023-03-31T14:26:05;15.00;;;12.52;;
77046;SDS011;65977;56.380;44.022;2023-03-31T14:28:48;13.25;;;9.73;;
77046;SDS011;65977;56.380;44.022;2023-03-31T14:31:24;13.60;;;10.93;;
77046;SDS011;65977;56.380;44.022;2023-03-31T14:39:31;19.25;;;15.60;;
77046;SDS011;65977;56.380;44.022;2023-03-31T14:42:03;19.23;;;11.63;;
77046;SDS011;65977;56.380;44.022;2023-03-31T14:44:36;14.25;;;10.70;;
77046;SDS011;65977;56.380;44.022;2023-03-31T14:47:04;15.10;;;11.57;;
77046;SDS011;65977;56.380;44.022;2023-03-31T14:49:35;20.10;;;11.45;;
77046;SDS011;65977;56.380;44.022;2023-03-31T14:52:38;14.52;;;11.30;;
77046;SDS011;65977;56.380;44.022;2023-03-31T14:54:59;20.40;;;14.68;;
77046;SDS011;65977;56.380;44.022;2023-03-31T14:57:29;19.50;;;12.07;;
77046;SDS011;65977;56.380;44.022;2023-03-31T15:00:00;20.00;;;14.52;;
77046;SDS011;65977;56.380;44.022;2023-03-31T15:02:34;19.27;;;12.40;;
77046;SDS011;65977;56.380;44.022;2023-03-31T15:05:04;18.92;;;15.18;;
77046;SDS011;65977;56.380;44.022;2023-03-31T15:07:35;20.05;;;13.55;;
77046;SDS011;65977;56.380;44.022;2023-03-31T15:10:03;20.38;;;13.27;;
77046;SDS011;65977;56.380;44.022;2023-03-31T15:12:32;19.90;;;16.15;;
77046;SDS011;65977;56.380;44.022;2023-03-31T15:15:02;16.00;;;11.07;;
77046;SDS011;65977;56.380;44.022;2023-03-31T15:17:38;19.15;;;13.80;;
77046;SDS011;65977;56.380;44.022;2023-03-31T15:20:20;17.40;;;14.43;;
77046;SDS011;65977;56.380;44.022;2023-03-31T15:23:20;18.45;;;15.27;;
77046;SDS011;65977;56.380;44.022;2023-03-31T15:25:55;20.23;;;16.25;;
77046;SDS011;65977;56.380;44.022;2023-03-31T15:28:25;17.88;;;14.40;;
77046;SDS011;65977;56.380;44.022;2023-03-31T15:30:57;16.80;;;11.43;;
77046;SDS011;65977;56.380;44.022;2023-03-31T15:33:44;18.33;;;13.55;;
77046;SDS011;65977;56.380;44.022;2023-03-31T15:36:13;16.80;;;12.65;;
77046;SDS011;65977;56.380;44.022;2023-03-31T15:38:40;10.43;;;7.20;;
77046;SDS011;65977;56.380;44.022;2023-03-31T15:41:12;15.32;;;10.13;;
77046;SDS011;65977;56.380;44.022;2023-03-31T15:46:10;16.67;;;9.77;;
77046;SDS011;65977;56.380;44.022;2023-03-31T15:51:27;13.00;;;5.50;;
77046;SDS011;65977;56.380;44.022;2023-03-31T15:53:58;11.35;;;10.05;;
77046;SDS011;65977;56.380;44.022;2023-03-31T15:59:01;6.13;;;4.88;;
77046;SDS011;65977;56.380;44.022;2023-03-31T16:01:31;8.07;;;5.88;;
77046;SDS011;65977;56.380;44.022;2023-03-31T16:04:01;5.88;;;4.57;;
77046;SDS011;65977;56.380;44.022;2023-03-31T16:09:05;7.75;;;6.43;;
77046;SDS011;65977;56.380;44.022;2023-03-31T16:11:55;6.75;;;4.97;;
77046;SDS011;65977;56.380;44.022;2023-03-31T16:14:28;9.88;;;3.78;;
77046;SDS011;65977;56.380;44.022;2023-03-31T16:17:04;5.97;;;3.95;;
77046;SDS011;65977;56.380;44.022;2023-03-31T16:19:41;5.05;;;3.92;;
77046;SDS011;65977;56.380;44.022;2023-03-31T16:22:12;8.30;;;4.00;;
77046;SDS011;65977;56.380;44.022;2023-03-31T16:24:44;5.10;;;3.58;;
77046;SDS011;65977;56.380;44.022;2023-03-31T16:27:12;5.32;;;3.92;;
77046;SDS011;65977;56.380;44.022;2023-03-31T16:29:40;5.30;;;3.85;;
77046;SDS011;65977;56.380;44.022;2023-03-31T16:32:17;6.03;;;4.60;;
77046;SDS011;65977;56.380;44.022;2023-03-31T16:37:28;4.45;;;3.28;;
77046;SDS011;65977;56.380;44.022;2023-03-31T16:39:56;5.50;;;2.60;;
77046;SDS011;65977;56.380;44.022;2023-03-31T16:42:23;6.20;;;3.88;;
77046;SDS011;65977;56.380;44.022;2023-03-31T16:44:51;6.20;;;3.55;;
77046;SDS011;65977;56.380;44.022;2023-03-31T16:47:38;4.78;;;2.63;;
77046;SDS011;65977;56.380;44.022;2023-03-31T16:50:13;3.45;;;2.30;;
77046;SDS011;65977;56.380;44.022;2023-03-31T16:52:51;5.70;;;4.07;;
77046;SDS011;65977;56.380;44.022;2023-03-31T16:55:18;6.28;;;2.70;;
77046;SDS011;65977;56.380;44.022;2023-03-31T16:57:46;5.28;;;4.32;;
77046;SDS011;65977;56.380;44.022;2023-03-31T17:00:14;5.15;;;4.45;;
77046;SDS011;65977;56.380;44.022;2023-03-31T17:02:41;5.03;;;3.75;;
77046;SDS011;65977;56.380;44.022;2023-03-31T17:05:08;7.90;;;4.20;;
77046;SDS011;65977;56.380;44.022;2023-03-31T17:07:39;4.28;;;3.00;;
77046;SDS011;65977;56.380;44.022;2023-03-31T17:10:06;6.45;;;4.22;;
77046;SDS011;65977;56.380;44.022;2023-03-31T17:12:34;4.70;;;3.80;;
77046;SDS011;65977;56.380;44.022;2023-03-31T17:15:01;4.72;;;3.83;;
77046;SDS011;65977;56.380;44.022;2023-03-31T17:17:28;8.02;;;5.75;;
77046;SDS011;65977;56.380;44.022;2023-03-31T17:19:56;5.93;;;4.18;;
77046;SDS011;65977;56.380;44.022;2023-03-31T17:22:24;5.43;;;4.65;;
77046;SDS011;65977;56.380;44.022;2023-03-31T17:24:52;6.43;;;4.57;;
77046;SDS011;65977;56.380;44.022;2023-03-31T17:27:24;6.22;;;4.43;;
77046;SDS011;65977;56.380;44.022;2023-03-31T17:29:53;5.63;;;3.90;;
77046;SDS011;65977;56.380;44.022;2023-03-31T17:32:21;6.90;;;3.33;;
77046;SDS011;65977;56.380;44.022;2023-03-31T17:34:48;5.32;;;4.53;;
77046;SDS011;65977;56.380;44.022;2023-03-31T17:37:16;5.63;;;4.20;;
77046;SDS011;65977;56.380;44.022;2023-03-31T17:39:44;4.93;;;3.88;;
77046;SDS011;65977;56.380;44.022;2023-03-31T17:42:12;4.10;;;3.33;;
77046;SDS011;65977;56.380;44.022;2023-03-31T17:44:39;5.40;;;3.72;;
77046;SDS011;65977;56.380;44.022;2023-03-31T17:47:07;6.22;;;5.20;;
77046;SDS011;65977;56.380;44.022;2023-03-31T17:49:34;6.32;;;4.93;;
77046;SDS011;65977;56.380;44.022;2023-03-31T17:52:01;4.65;;;3.25;;
77046;SDS011;65977;56.380;44.022;2023-03-31T17:54:28;7.15;;;5.88;;
77046;SDS011;65977;56.380;44.022;2023-03-31T17:56:55;5.32;;;4.35;;